createdAt,value
2019-03-23T00:02:27.983Z,19.73
2019-03-23T00:05:01.230Z,18.20
2019-03-23T00:07:34.809Z,18.90
2019-03-23T00:10:08.947Z,19.30
2019-03-23T00:12:42.123Z,20.63
2019-03-23T00:15:17.658Z,25.70
2019-03-23T00:17:50.892Z,29.27
2019-03-23T00:20:24.357Z,25.40
2019-03-23T00:22:57.869Z,25.60
2019-03-23T00:25:31.314Z,23.03
2019-03-23T00:28:04.559Z,22.53
2019-03-23T00:30:38.007Z,23.40
2019-03-23T00:33:11.440Z,20.87
2019-03-23T00:35:44.645Z,23.20
2019-03-23T00:38:17.938Z,21.87
2019-03-23T00:40:52.499Z,21.53
2019-03-23T00:43:25.919Z,22.17
2019-03-23T00:45:59.331Z,23.47
2019-03-23T00:48:32.616Z,23.70
2019-03-23T00:51:05.945Z,26.53
2019-03-23T00:53:39.315Z,23.10
2019-03-23T00:56:12.597Z,22.07
2019-03-23T00:58:45.987Z,21.33
2019-03-23T01:01:19.284Z,21.53
2019-03-23T01:03:52.698Z,25.23
2019-03-23T01:06:26.012Z,21.77
2019-03-23T01:09:00.521Z,27.97
2019-03-23T01:11:34.039Z,23.63
2019-03-23T01:14:07.484Z,26.83
2019-03-23T01:16:40.921Z,24.93
2019-03-23T01:19:14.478Z,23.90
2019-03-23T01:21:48.007Z,24.30
2019-03-23T01:24:21.404Z,25.40
2019-03-23T01:26:54.978Z,27.47
2019-03-23T01:29:28.371Z,25.07
2019-03-23T01:32:01.672Z,25.10
2019-03-23T01:34:35.172Z,26.17
2019-03-23T01:37:08.768Z,25.80
2019-03-23T01:39:42.006Z,24.63
2019-03-23T01:42:15.699Z,25.43
2019-03-23T01:44:49.259Z,26.30
2019-03-23T01:47:22.915Z,29.43
2019-03-23T01:49:56.473Z,24.33
2019-03-23T01:52:29.706Z,24.67
2019-03-23T01:55:08.185Z,25.70
2019-03-23T01:57:41.837Z,25.17
2019-03-23T02:00:15.709Z,25.70
2019-03-23T02:02:48.906Z,24.70
2019-03-23T02:05:22.180Z,27.47
2019-03-23T02:07:55.610Z,23.00
2019-03-23T02:10:29.109Z,29.60
2019-03-23T02:13:02.494Z,33.50
2019-03-23T02:15:35.788Z,28.90
2019-03-23T02:18:09.160Z,31.33
2019-03-23T02:20:42.528Z,29.63
2019-03-23T02:23:15.775Z,27.63
2019-03-23T02:25:49.442Z,23.77
2019-03-23T02:28:23.039Z,23.77
2019-03-23T02:30:56.569Z,23.60
2019-03-23T02:33:30.045Z,25.87
2019-03-23T02:36:03.272Z,25.83
2019-03-23T02:38:36.551Z,26.47
2019-03-23T02:41:09.750Z,22.40
2019-03-23T02:43:43.423Z,29.43
2019-03-23T02:46:16.717Z,24.50
2019-03-23T02:48:50.011Z,22.13
2019-03-23T02:51:23.235Z,27.67
2019-03-23T02:53:56.704Z,27.87
2019-03-23T02:56:30.141Z,26.83
2019-03-23T02:59:03.908Z,29.83
2019-03-23T03:01:37.577Z,26.37
2019-03-23T03:04:10.919Z,26.40
2019-03-23T03:06:44.482Z,25.60
2019-03-23T03:09:18.007Z,27.23
2019-03-23T03:11:51.504Z,29.40
2019-03-23T03:14:25.314Z,24.27
2019-03-23T03:16:58.605Z,26.63
2019-03-23T03:19:32.226Z,25.80
2019-03-23T03:22:05.809Z,22.73
2019-03-23T03:24:39.092Z,26.07
2019-03-23T03:27:12.321Z,26.17
2019-03-23T03:29:46.070Z,21.97
2019-03-23T03:32:19.533Z,25.97
2019-03-23T03:34:53.319Z,26.23
2019-03-23T03:37:26.791Z,22.43
2019-03-23T03:40:00.022Z,20.57
2019-03-23T03:42:33.379Z,23.37
2019-03-23T03:45:06.670Z,24.00
2019-03-23T03:47:41.432Z,26.83
2019-03-23T03:50:15.112Z,26.17
2019-03-23T03:52:48.535Z,28.83
2019-03-23T03:55:21.900Z,27.23
2019-03-23T03:57:55.252Z,24.30
2019-03-23T04:00:28.571Z,28.03
2019-03-23T04:03:01.813Z,24.47
2019-03-23T04:05:35.384Z,25.73
2019-03-23T04:08:11.520Z,25.23
2019-03-23T04:10:43.932Z,28.63
2019-03-23T04:13:17.761Z,24.03
2019-03-23T04:15:51.240Z,23.93
2019-03-23T04:18:24.516Z,25.67
2019-03-23T04:20:58.011Z,26.27
2019-03-23T04:23:31.701Z,26.33
2019-03-23T04:26:05.244Z,24.90
2019-03-23T04:28:38.710Z,26.50
2019-03-23T04:31:12.284Z,24.13
2019-03-23T04:33:45.617Z,27.00
2019-03-23T04:36:19.038Z,26.67
2019-03-23T04:38:52.180Z,27.47
2019-03-23T04:41:25.570Z,24.20
2019-03-23T04:43:59.205Z,26.93
2019-03-23T04:46:32.482Z,24.97
2019-03-23T04:49:06.071Z,27.93
2019-03-23T04:51:39.374Z,23.73
2019-03-23T04:54:12.756Z,24.07
2019-03-23T04:56:46.069Z,23.60
2019-03-23T04:59:19.272Z,20.83
2019-03-23T05:01:52.561Z,24.60
2019-03-23T05:04:28.579Z,23.47
2019-03-23T05:07:01.850Z,25.60
2019-03-23T05:09:35.295Z,28.83
2019-03-23T05:12:08.699Z,26.43
2019-03-23T05:14:42.078Z,33.00
2019-03-23T05:17:15.507Z,30.17
2019-03-23T05:19:48.924Z,31.20
2019-03-23T05:22:22.110Z,27.03
2019-03-23T05:24:55.361Z,38.30
2019-03-23T05:27:28.973Z,34.57
2019-03-23T05:30:02.351Z,37.73
2019-03-23T05:32:35.626Z,31.87
2019-03-23T05:35:09.354Z,35.37
2019-03-23T05:37:42.618Z,30.80
2019-03-23T05:40:15.892Z,31.30
2019-03-23T05:42:49.133Z,23.90
2019-03-23T05:45:22.628Z,22.67
2019-03-23T05:47:55.833Z,27.60
2019-03-23T05:50:29.246Z,24.47
2019-03-23T05:53:02.549Z,27.53
2019-03-23T05:55:36.020Z,23.80
2019-03-23T05:58:09.359Z,27.63
2019-03-23T06:00:42.875Z,24.97
2019-03-23T06:03:16.162Z,25.83
2019-03-23T06:05:49.871Z,28.13
2019-03-23T06:08:23.157Z,28.00
2019-03-23T06:10:56.735Z,28.60
2019-03-23T06:13:29.953Z,30.07
2019-03-23T06:16:03.228Z,31.00
2019-03-23T06:18:36.710Z,33.53
2019-03-23T06:21:10.088Z,31.83
2019-03-23T06:23:43.627Z,34.03
2019-03-23T06:26:16.948Z,35.03
2019-03-23T06:28:50.335Z,32.87
2019-03-23T06:31:23.982Z,33.40
2019-03-23T06:33:57.206Z,33.83
2019-03-23T06:36:30.494Z,33.57
2019-03-23T06:39:05.764Z,36.30
2019-03-23T06:41:39.349Z,35.83
2019-03-23T06:44:12.549Z,36.43
2019-03-23T06:46:45.914Z,41.03
2019-03-23T06:49:20.267Z,38.60
2019-03-23T06:51:53.957Z,38.90
2019-03-23T06:54:27.585Z,37.97
2019-03-23T06:57:00.926Z,40.37
2019-03-23T06:59:36.439Z,33.93
2019-03-23T07:02:09.999Z,36.60
2019-03-23T07:04:43.213Z,33.43
2019-03-23T07:07:16.563Z,36.20
2019-03-23T07:09:49.681Z,36.43
2019-03-23T07:12:23.051Z,38.80
2019-03-23T07:14:56.311Z,40.40
2019-03-23T07:17:29.778Z,35.93
2019-03-23T07:20:03.149Z,34.15
2019-03-23T07:22:36.791Z,37.07
2019-03-23T07:25:11.410Z,41.40
2019-03-23T07:27:44.712Z,41.08
2019-03-23T07:30:18.979Z,39.43
2019-03-23T07:32:52.296Z,41.50
2019-03-23T07:35:25.776Z,44.93
2019-03-23T07:37:59.186Z,40.12
2019-03-23T07:40:32.501Z,41.75
2019-03-23T07:43:06.020Z,47.23
2019-03-23T07:45:39.363Z,43.15
2019-03-23T07:48:12.780Z,46.33
2019-03-23T07:50:46.071Z,43.42
2019-03-23T07:53:20.575Z,45.92
2019-03-23T07:55:54.182Z,51.73
2019-03-23T07:58:27.657Z,49.85
2019-03-23T08:01:19.497Z,44.58
2019-03-23T08:03:52.829Z,44.55
2019-03-23T08:06:26.120Z,48.78
2019-03-23T08:09:00.854Z,43.20
2019-03-23T08:11:34.131Z,44.25
2019-03-23T08:14:07.802Z,44.63
2019-03-23T08:16:41.291Z,42.75
2019-03-23T08:19:15.492Z,50.35
2019-03-23T08:21:49.069Z,42.93
2019-03-23T08:24:22.888Z,43.87
2019-03-23T08:26:56.170Z,43.15
2019-03-23T08:29:40.051Z,48.38
2019-03-23T08:32:13.793Z,43.38
2019-03-23T08:34:47.351Z,43.92
2019-03-23T08:37:20.638Z,45.08
2019-03-23T08:39:54.498Z,47.08
2019-03-23T08:42:27.856Z,39.83
2019-03-23T08:45:01.229Z,50.20
2019-03-23T08:47:34.634Z,44.75
2019-03-23T08:50:08.047Z,45.92
2019-03-23T08:52:41.331Z,41.35
2019-03-23T08:55:17.287Z,51.25
2019-03-23T08:57:50.645Z,45.30
2019-03-23T09:00:24.076Z,46.30
2019-03-23T09:02:57.939Z,44.48
2019-03-23T09:05:31.273Z,40.73
2019-03-23T09:08:05.287Z,44.27
2019-03-23T09:10:38.843Z,46.20
2019-03-23T09:13:12.136Z,41.70
2019-03-23T09:15:45.571Z,38.80
2019-03-23T09:18:19.320Z,45.95
2019-03-23T09:20:53.874Z,40.45
2019-03-23T09:23:27.280Z,36.30
2019-03-23T09:26:00.550Z,39.27
2019-03-23T09:28:33.805Z,45.98
2019-03-23T09:31:07.139Z,43.70
2019-03-23T09:33:40.818Z,42.48
2019-03-23T09:36:14.121Z,49.13
2019-03-23T09:38:47.308Z,44.88
2019-03-23T09:41:20.704Z,46.48
2019-03-23T09:43:54.294Z,47.10
2019-03-23T09:46:27.607Z,54.20
2019-03-23T09:49:01.027Z,48.35
2019-03-23T09:51:34.257Z,48.08
2019-03-23T09:54:08.104Z,40.75
2019-03-23T09:56:41.392Z,42.20
2019-03-23T09:59:14.608Z,41.58
2019-03-23T10:01:48.112Z,44.20
2019-03-23T10:04:21.362Z,41.48
2019-03-23T10:06:54.791Z,38.40
2019-03-23T10:09:27.967Z,39.98
2019-03-23T10:12:01.739Z,42.20
2019-03-23T10:14:35.340Z,40.30
2019-03-23T10:17:08.536Z,41.58
2019-03-23T10:19:41.750Z,39.20
2019-03-23T10:22:15.457Z,46.37
2019-03-23T10:24:48.637Z,41.50
2019-03-23T10:27:22.045Z,41.90
2019-03-23T10:29:55.464Z,39.35
2019-03-23T10:32:28.893Z,41.33
2019-03-23T10:35:02.353Z,35.80
2019-03-23T10:37:35.834Z,37.98
2019-03-23T10:40:09.443Z,43.60
2019-03-23T10:42:43.574Z,39.67
2019-03-23T10:45:18.079Z,37.15
2019-03-23T10:47:51.525Z,40.17
2019-03-23T10:50:24.755Z,32.90
2019-03-23T10:52:58.226Z,33.63
2019-03-23T10:55:31.531Z,37.15
2019-03-23T10:58:05.072Z,33.92
2019-03-23T11:00:38.773Z,35.83
2019-03-23T11:03:12.453Z,37.28
2019-03-23T11:05:46.063Z,44.83
2019-03-23T11:08:19.653Z,39.78
2019-03-23T11:10:53.259Z,43.78
2019-03-23T11:13:26.773Z,45.98
2019-03-23T11:16:00.301Z,48.55
2019-03-23T11:18:33.574Z,33.13
2019-03-23T11:21:07.102Z,34.15
2019-03-23T11:23:40.589Z,32.33
2019-03-23T11:26:14.181Z,40.70
2019-03-23T11:28:47.754Z,33.65
2019-03-23T11:31:21.295Z,33.83
2019-03-23T11:33:54.652Z,34.18
2019-03-23T11:36:28.075Z,35.17
2019-03-23T11:39:01.521Z,37.38
2019-03-23T11:41:34.870Z,33.42
2019-03-23T11:44:08.377Z,33.18
2019-03-23T11:46:42.741Z,32.25
2019-03-23T11:49:16.257Z,30.20
2019-03-23T11:51:49.443Z,23.52
2019-03-23T11:54:24.278Z,18.67
2019-03-23T11:56:58.078Z,19.62
2019-03-23T11:59:31.850Z,16.65
2019-03-23T12:02:05.256Z,10.68
2019-03-23T12:04:38.759Z,14.28
2019-03-23T12:07:12.220Z,12.93
2019-03-23T12:09:45.960Z,9.53
2019-03-23T12:12:19.344Z,14.18
2019-03-23T12:14:52.631Z,12.82
2019-03-23T12:17:26.200Z,14.20
2019-03-23T12:19:59.669Z,7.03
2019-03-23T12:22:33.042Z,9.40
2019-03-23T12:25:07.484Z,11.33
2019-03-23T12:27:40.815Z,11.83
2019-03-23T12:30:16.403Z,10.82
2019-03-23T12:32:50.043Z,10.13
2019-03-23T12:35:23.359Z,9.75
2019-03-23T12:37:56.753Z,11.60
2019-03-23T12:40:30.040Z,12.58
2019-03-23T12:43:03.719Z,8.85
2019-03-23T12:45:38.822Z,15.45
2019-03-23T12:48:12.229Z,13.80
2019-03-23T12:50:46.318Z,14.43
2019-03-23T12:53:19.613Z,10.23
2019-03-23T12:55:52.938Z,9.90
2019-03-23T12:58:26.141Z,11.30
2019-03-23T13:00:59.429Z,11.18
2019-03-23T13:03:32.626Z,9.70
2019-03-23T13:06:06.161Z,13.58
2019-03-23T13:08:39.537Z,12.23
2019-03-23T13:11:19.468Z,10.13
2019-03-23T13:13:47.741Z,10.45
2019-03-23T13:16:21.098Z,12.58
2019-03-23T13:18:54.551Z,9.78
2019-03-23T13:21:28.437Z,9.10
2019-03-23T13:24:01.896Z,9.95
2019-03-23T13:26:36.573Z,6.83
2019-03-23T13:29:09.796Z,7.28
2019-03-23T13:31:43.695Z,7.15
2019-03-23T13:34:17.318Z,10.32
2019-03-23T13:36:50.585Z,7.42
2019-03-23T13:39:23.883Z,7.40
2019-03-23T13:41:57.184Z,8.73
2019-03-23T13:44:30.790Z,11.05
2019-03-23T13:47:04.189Z,7.67
2019-03-23T13:49:37.527Z,6.60
2019-03-23T13:52:10.732Z,8.95
2019-03-23T13:54:43.995Z,8.78
2019-03-23T13:57:17.475Z,8.88
2019-03-23T13:59:50.874Z,9.05
2019-03-23T14:02:24.314Z,12.10
2019-03-23T14:04:57.713Z,11.00
2019-03-23T14:07:31.199Z,10.15
2019-03-23T14:10:04.522Z,12.05
2019-03-23T14:12:37.855Z,10.05
2019-03-23T14:15:11.565Z,11.20
2019-03-23T14:17:44.799Z,12.50
2019-03-23T14:20:18.251Z,12.03
2019-03-23T14:22:51.691Z,14.75
2019-03-23T14:25:24.985Z,13.58
2019-03-23T14:27:58.647Z,29.52
2019-03-23T14:30:32.748Z,20.37
2019-03-23T14:33:06.043Z,9.05
2019-03-23T14:35:39.503Z,10.10
2019-03-23T14:38:12.753Z,15.38
2019-03-23T14:40:46.183Z,13.83
2019-03-23T14:43:19.460Z,9.90
2019-03-23T14:45:53.055Z,10.45
2019-03-23T14:48:26.448Z,12.03
2019-03-23T14:50:59.871Z,10.18
2019-03-23T14:53:33.184Z,10.18
2019-03-23T14:56:06.387Z,7.67
2019-03-23T14:58:39.868Z,9.05
2019-03-23T15:01:13.323Z,8.77
2019-03-23T15:03:46.872Z,8.23
2019-03-23T15:06:20.381Z,10.93
2019-03-23T15:08:53.861Z,8.27
2019-03-23T15:11:27.265Z,7.45
2019-03-23T15:14:00.536Z,8.65
2019-03-23T15:16:34.076Z,8.07
2019-03-23T15:19:07.408Z,8.08
2019-03-23T15:21:40.737Z,7.85
2019-03-23T15:24:14.089Z,8.10
2019-03-23T15:26:47.458Z,7.83
2019-03-23T15:29:21.188Z,9.18
2019-03-23T15:31:54.526Z,8.63
2019-03-23T15:34:27.909Z,9.85
2019-03-23T15:37:01.336Z,11.18
2019-03-23T15:39:34.663Z,10.13
2019-03-23T15:42:08.025Z,8.05
2019-03-23T15:44:41.332Z,8.73
2019-03-23T15:47:14.766Z,10.35
2019-03-23T15:49:48.043Z,13.28
2019-03-23T15:52:22.163Z,12.43
2019-03-23T15:54:55.355Z,14.75
2019-03-23T15:57:29.232Z,11.15
2019-03-23T16:00:02.638Z,9.00
2019-03-23T16:02:36.013Z,17.87
2019-03-23T16:05:10.044Z,13.25
2019-03-23T16:07:43.314Z,12.53
2019-03-23T16:10:16.858Z,10.45
2019-03-23T16:12:50.256Z,10.30
2019-03-23T16:15:23.868Z,8.77
2019-03-23T16:17:57.223Z,8.40
2019-03-23T16:20:30.651Z,8.63
2019-03-23T16:23:03.905Z,11.23
2019-03-23T16:25:37.495Z,10.13
2019-03-23T16:28:11.085Z,9.33
2019-03-23T16:30:44.696Z,8.70
2019-03-23T16:33:17.928Z,8.10
2019-03-23T16:35:51.848Z,125.43
2019-03-23T16:38:25.039Z,42.23
2019-03-23T16:40:58.583Z,20.03
2019-03-23T16:43:31.920Z,12.47
2019-03-23T16:46:05.286Z,10.10
2019-03-23T16:48:38.512Z,9.77
2019-03-23T16:51:11.842Z,9.70
2019-03-23T16:53:45.359Z,7.40
2019-03-23T16:56:18.685Z,13.10
2019-03-23T16:58:52.539Z,14.20
2019-03-23T17:01:26.278Z,9.20
2019-03-23T17:03:59.698Z,13.47
2019-03-23T17:06:33.879Z,9.43
2019-03-23T17:09:08.013Z,10.97
2019-03-23T17:11:41.728Z,10.43
2019-03-23T17:14:15.185Z,10.03
2019-03-23T17:16:48.644Z,7.83
2019-03-23T17:19:22.050Z,8.13
2019-03-23T17:21:56.138Z,11.17
2019-03-23T17:24:29.523Z,7.70
2019-03-23T17:27:03.035Z,8.67
2019-03-23T17:29:36.387Z,12.03
2019-03-23T17:32:10.200Z,10.97
2019-03-23T17:34:43.554Z,11.57
2019-03-23T17:37:16.864Z,13.37
2019-03-23T17:39:50.204Z,10.50
2019-03-23T17:42:23.927Z,13.93
2019-03-23T17:44:57.268Z,10.13
2019-03-23T17:47:30.748Z,11.57
2019-03-23T17:50:04.319Z,10.13
2019-03-23T17:52:37.818Z,12.63
2019-03-23T17:55:12.029Z,15.63
2019-03-23T17:57:45.743Z,11.87
2019-03-23T18:00:19.946Z,14.27
2019-03-23T18:02:53.458Z,14.57
2019-03-23T18:05:26.919Z,10.60
2019-03-23T18:08:00.238Z,13.77
2019-03-23T18:10:33.696Z,13.73
2019-03-23T18:13:16.173Z,9.87
2019-03-23T18:15:43.078Z,8.70
2019-03-23T18:18:17.012Z,11.30
2019-03-23T18:20:50.758Z,11.67
2019-03-23T18:23:24.114Z,10.20
2019-03-23T18:25:57.797Z,9.07
2019-03-23T18:28:31.278Z,9.60
2019-03-23T18:31:05.016Z,9.97
2019-03-23T18:33:38.287Z,9.60
2019-03-23T18:36:12.503Z,8.87
2019-03-23T18:38:45.881Z,9.60
2019-03-23T18:41:19.238Z,10.17
2019-03-23T18:43:52.739Z,14.23
2019-03-23T18:46:26.237Z,12.30
2019-03-23T18:49:00.193Z,10.83
2019-03-23T18:51:33.401Z,10.57
2019-03-23T18:54:07.000Z,10.63
2019-03-23T18:56:40.416Z,22.10
2019-03-23T18:59:13.793Z,11.00
2019-03-23T19:01:47.227Z,11.67
2019-03-23T19:04:20.783Z,14.30
2019-03-23T19:06:54.173Z,11.50
2019-03-23T19:09:27.707Z,14.87
2019-03-23T19:12:01.647Z,10.57
2019-03-23T19:14:35.066Z,11.50
2019-03-23T19:17:08.542Z,11.73
2019-03-23T19:19:42.486Z,13.93
2019-03-23T19:22:16.170Z,16.87
2019-03-23T19:24:50.144Z,20.97
2019-03-23T19:27:23.712Z,15.17
2019-03-23T19:29:57.273Z,13.73
2019-03-23T19:32:30.742Z,13.10
2019-03-23T19:35:04.967Z,16.73
2019-03-23T19:37:38.966Z,18.03
2019-03-23T19:40:12.915Z,17.97
2019-03-23T19:42:46.277Z,13.47
2019-03-23T19:45:19.802Z,11.67
2019-03-23T19:47:53.863Z,13.63
2019-03-23T19:50:27.318Z,17.03
2019-03-23T19:53:00.926Z,19.83
2019-03-23T19:55:34.278Z,16.87
2019-03-23T19:58:07.617Z,14.43
2019-03-23T20:00:40.838Z,16.67
2019-03-23T20:03:14.195Z,14.87
2019-03-23T20:05:47.732Z,12.67
2019-03-23T20:08:21.176Z,13.60
2019-03-23T20:10:54.704Z,15.30
2019-03-23T20:13:28.458Z,11.63
2019-03-23T20:16:01.984Z,14.23
2019-03-23T20:18:35.945Z,15.27
2019-03-23T20:21:12.122Z,15.83
2019-03-23T20:23:45.574Z,14.67
2019-03-23T20:26:18.855Z,15.67
2019-03-23T20:28:52.303Z,13.13
2019-03-23T20:31:25.696Z,14.53
2019-03-23T20:33:59.197Z,19.90
2019-03-23T20:36:32.511Z,14.43
2019-03-23T20:39:07.790Z,15.70
2019-03-23T20:41:41.470Z,14.47
2019-03-23T20:44:15.231Z,13.63
2019-03-23T20:46:48.825Z,19.40
2019-03-23T20:49:22.643Z,16.37
2019-03-23T20:51:56.787Z,23.20
2019-03-23T20:54:30.712Z,23.33
2019-03-23T20:57:04.175Z,22.30
2019-03-23T20:59:37.488Z,16.57
2019-03-23T21:02:11.879Z,14.73
2019-03-23T21:04:45.358Z,14.43
2019-03-23T21:07:18.836Z,14.13
2019-03-23T21:09:52.410Z,15.37
2019-03-23T21:12:27.321Z,17.83
2019-03-23T21:15:01.358Z,14.53
2019-03-23T21:17:34.669Z,14.77
2019-03-23T21:20:08.514Z,17.30
2019-03-23T21:22:41.820Z,19.20
2019-03-23T21:25:15.506Z,20.03
2019-03-23T21:27:48.929Z,17.20
2019-03-23T21:30:22.912Z,14.03
2019-03-23T21:32:56.464Z,16.07
2019-03-23T21:35:29.758Z,20.03
2019-03-23T21:38:03.781Z,15.80
2019-03-23T21:40:37.144Z,15.87
2019-03-23T21:43:11.025Z,18.47
2019-03-23T21:45:47.684Z,14.57
2019-03-23T21:48:22.330Z,18.07
2019-03-23T21:50:55.853Z,17.30
2019-03-23T21:53:32.053Z,15.17
2019-03-23T21:56:07.372Z,18.70
2019-03-23T21:58:40.647Z,17.27
2019-03-23T22:01:14.286Z,15.73
2019-03-23T22:03:47.615Z,17.37
2019-03-23T22:06:24.351Z,18.07
2019-03-23T22:09:00.350Z,18.20
2019-03-23T22:11:33.750Z,17.50
2019-03-23T22:14:07.198Z,14.80
2019-03-23T22:16:41.106Z,12.93
2019-03-23T22:19:15.016Z,18.20
2019-03-23T22:21:48.233Z,22.87
2019-03-23T22:24:21.570Z,25.03
2019-03-23T22:26:55.407Z,23.13
2019-03-23T22:29:28.653Z,17.70
2019-03-23T22:32:02.208Z,18.23
2019-03-23T22:34:36.141Z,20.93
2019-03-23T22:37:09.650Z,17.93
2019-03-23T22:39:43.151Z,18.43
2019-03-23T22:42:16.523Z,15.80
2019-03-23T22:44:52.787Z,16.97
2019-03-23T22:47:25.484Z,15.30
2019-03-23T22:49:58.764Z,15.07
2019-03-23T22:52:32.226Z,16.80
2019-03-23T22:55:05.847Z,13.10
2019-03-23T22:57:39.538Z,14.27
2019-03-23T23:00:18.490Z,14.73
2019-03-23T23:02:52.122Z,14.03
2019-03-23T23:05:25.404Z,15.83
2019-03-23T23:07:58.723Z,14.20
2019-03-23T23:10:32.455Z,12.80
2019-03-23T23:13:05.800Z,14.43
2019-03-23T23:15:39.085Z,22.83
2019-03-23T23:18:12.686Z,19.77
2019-03-23T23:20:46.016Z,18.47
2019-03-23T23:23:19.609Z,16.07
2019-03-23T23:25:53.146Z,17.20
2019-03-23T23:28:26.347Z,16.80
2019-03-23T23:30:59.815Z,18.97
2019-03-23T23:33:33.068Z,12.90
2019-03-23T23:36:06.634Z,14.00
2019-03-23T23:38:40.093Z,16.40
2019-03-23T23:41:13.278Z,15.90
2019-03-23T23:43:46.692Z,12.50
2019-03-23T23:46:21.052Z,15.20
2019-03-23T23:48:54.635Z,16.70
2019-03-23T23:51:27.985Z,16.07
2019-03-23T23:54:01.269Z,15.37
2019-03-23T23:56:34.666Z,17.23
2019-03-23T23:59:08.069Z,15.70
